Canyon Country, California
Current Conditions -  °F | °C
As of 4:51 PM on Sunday 23 Nov 2014 (Local Time) from KVNY Reporting Station
Clear Clear  
Wind Chill: 69°   Ceiling: Unl
Heat Index: 69°   Visibility: 10mi
Dew Point:   Wind: 17mph
Humidity: 9%   Direction: 10°N
Pressure: 30.12"   Gusts: NA
Location:  34.42°N, 118.45°W
Report Text: KVNY 240051Z 01015KT 10SM CLR 21/M14 A3012 RMK AO2 PK WND 01026/2357 SLP194 T02061144
Loading
Personal Weather Stations






























Interactive Weather Map New forecast layout! Learn more

10-Day Weather Forecast

Advertisements
Track Severe Weather on mobile